sensor_id;sensor_type;location;lat;lon;timestamp;P1;durP1;ratioP1;P2;durP2;ratioP2
78834;SDS011;68187;42.682;23.352;2023-02-28T00:00:42;20.52;;;11.85;;
78834;SDS011;68187;42.682;23.352;2023-02-28T00:03:35;20.05;;;11.98;;
78834;SDS011;68187;42.682;23.352;2023-02-28T00:06:21;20.25;;;12.18;;
78834;SDS011;68187;42.682;23.352;2023-02-28T00:08:53;18.55;;;11.15;;
78834;SDS011;68187;42.682;23.352;2023-02-28T00:11:28;20.60;;;12.63;;
78834;SDS011;68187;42.682;23.352;2023-02-28T00:14:09;22.35;;;12.68;;
78834;SDS011;68187;42.682;23.352;2023-02-28T00:16:54;22.10;;;11.30;;
78834;SDS011;68187;42.682;23.352;2023-02-28T00:22:42;20.02;;;10.45;;
78834;SDS011;68187;42.682;23.352;2023-02-28T00:25:15;19.33;;;12.07;;
78834;SDS011;68187;42.682;23.352;2023-02-28T00:27:55;21.05;;;11.05;;
78834;SDS011;68187;42.682;23.352;2023-02-28T00:30:45;18.90;;;11.73;;
78834;SDS011;68187;42.682;23.352;2023-02-28T00:33:35;22.17;;;12.43;;
78834;SDS011;68187;42.682;23.352;2023-02-28T00:39:19;20.88;;;12.35;;
78834;SDS011;68187;42.682;23.352;2023-02-28T00:42:00;19.45;;;11.68;;
78834;SDS011;68187;42.682;23.352;2023-02-28T00:45:08;22.63;;;13.38;;
78834;SDS011;68187;42.682;23.352;2023-02-28T00:47:44;19.80;;;13.98;;
78834;SDS011;68187;42.682;23.352;2023-02-28T00:50:31;22.48;;;13.57;;
78834;SDS011;68187;42.682;23.352;2023-02-28T00:53:18;24.38;;;15.38;;
78834;SDS011;68187;42.682;23.352;2023-02-28T00:55:54;22.60;;;14.75;;
78834;SDS011;68187;42.682;23.352;2023-02-28T00:58:26;21.63;;;14.30;;
78834;SDS011;68187;42.682;23.352;2023-02-28T01:01:09;25.63;;;15.45;;
78834;SDS011;68187;42.682;23.352;2023-02-28T01:03:45;22.85;;;14.50;;
78834;SDS011;68187;42.682;23.352;2023-02-28T01:06:27;22.60;;;13.10;;
78834;SDS011;68187;42.682;23.352;2023-02-28T01:09:06;26.65;;;14.27;;
78834;SDS011;68187;42.682;23.352;2023-02-28T01:11:39;28.48;;;15.63;;
78834;SDS011;68187;42.682;23.352;2023-02-28T01:14:18;26.15;;;15.65;;
78834;SDS011;68187;42.682;23.352;2023-02-28T01:16:55;23.88;;;15.63;;
78834;SDS011;68187;42.682;23.352;2023-02-28T01:19:32;25.38;;;14.82;;
78834;SDS011;68187;42.682;23.352;2023-02-28T01:22:17;25.17;;;12.82;;
78834;SDS011;68187;42.682;23.352;2023-02-28T01:24:58;23.75;;;14.23;;
78834;SDS011;68187;42.682;23.352;2023-02-28T01:27:35;23.33;;;14.88;;
78834;SDS011;68187;42.682;23.352;2023-02-28T01:30:12;23.92;;;15.25;;
78834;SDS011;68187;42.682;23.352;2023-02-28T01:32:46;24.02;;;14.55;;
78834;SDS011;68187;42.682;23.352;2023-02-28T01:35:24;25.70;;;15.10;;
78834;SDS011;68187;42.682;23.352;2023-02-28T01:38:02;25.40;;;13.90;;
78834;SDS011;68187;42.682;23.352;2023-02-28T01:40:39;23.10;;;14.98;;
78834;SDS011;68187;42.682;23.352;2023-02-28T01:43:22;24.52;;;14.05;;
78834;SDS011;68187;42.682;23.352;2023-02-28T01:45:55;25.48;;;13.85;;
78834;SDS011;68187;42.682;23.352;2023-02-28T01:48:32;23.52;;;12.18;;
78834;SDS011;68187;42.682;23.352;2023-02-28T01:51:04;29.20;;;14.63;;
78834;SDS011;68187;42.682;23.352;2023-02-28T01:53:41;24.95;;;14.00;;
78834;SDS011;68187;42.682;23.352;2023-02-28T01:56:28;24.00;;;14.50;;
78834;SDS011;68187;42.682;23.352;2023-02-28T01:59:42;24.40;;;13.73;;
78834;SDS011;68187;42.682;23.352;2023-02-28T02:02:53;21.95;;;14.02;;
78834;SDS011;68187;42.682;23.352;2023-02-28T02:06:06;23.98;;;15.02;;
78834;SDS011;68187;42.682;23.352;2023-02-28T02:08:54;25.50;;;16.08;;
78834;SDS011;68187;42.682;23.352;2023-02-28T02:11:43;25.55;;;14.40;;
78834;SDS011;68187;42.682;23.352;2023-02-28T02:14:30;24.35;;;13.52;;
78834;SDS011;68187;42.682;23.352;2023-02-28T02:17:56;24.75;;;14.65;;
78834;SDS011;68187;42.682;23.352;2023-02-28T02:20:52;20.67;;;13.25;;
78834;SDS011;68187;42.682;23.352;2023-02-28T02:27:24;23.55;;;12.70;;
78834;SDS011;68187;42.682;23.352;2023-02-28T02:30:19;28.88;;;15.93;;
78834;SDS011;68187;42.682;23.352;2023-02-28T02:36:51;23.00;;;11.93;;
78834;SDS011;68187;42.682;23.352;2023-02-28T02:39:44;23.40;;;14.00;;
78834;SDS011;68187;42.682;23.352;2023-02-28T02:42:46;22.80;;;14.77;;
78834;SDS011;68187;42.682;23.352;2023-02-28T02:45:53;25.15;;;14.40;;
78834;SDS011;68187;42.682;23.352;2023-02-28T02:48:38;25.35;;;14.55;;
78834;SDS011;68187;42.682;23.352;2023-02-28T02:51:20;23.05;;;15.50;;
78834;SDS011;68187;42.682;23.352;2023-02-28T02:54:13;27.83;;;14.90;;
78834;SDS011;68187;42.682;23.352;2023-02-28T02:57:12;25.67;;;15.93;;
78834;SDS011;68187;42.682;23.352;2023-02-28T03:00:07;24.75;;;15.30;;
78834;SDS011;68187;42.682;23.352;2023-02-28T03:03:15;29.83;;;15.93;;
78834;SDS011;68187;42.682;23.352;2023-02-28T03:06:07;27.75;;;16.67;;
78834;SDS011;68187;42.682;23.352;2023-02-28T03:15:18;28.88;;;15.82;;
78834;SDS011;68187;42.682;23.352;2023-02-28T03:18:14;31.08;;;14.98;;
78834;SDS011;68187;42.682;23.352;2023-02-28T03:21:00;28.52;;;15.85;;
78834;SDS011;68187;42.682;23.352;2023-02-28T03:25:01;28.77;;;15.55;;
78834;SDS011;68187;42.682;23.352;2023-02-28T03:30:52;34.63;;;17.00;;
78834;SDS011;68187;42.682;23.352;2023-02-28T03:33:49;31.60;;;16.83;;
78834;SDS011;68187;42.682;23.352;2023-02-28T03:40:29;35.28;;;18.60;;
78834;SDS011;68187;42.682;23.352;2023-02-28T03:43:41;35.75;;;18.90;;
78834;SDS011;68187;42.682;23.352;2023-02-28T03:46:39;42.65;;;20.17;;
78834;SDS011;68187;42.682;23.352;2023-02-28T03:49:21;36.47;;;19.38;;
78834;SDS011;68187;42.682;23.352;2023-02-28T03:51:59;39.35;;;19.58;;
78834;SDS011;68187;42.682;23.352;2023-02-28T03:54:47;36.95;;;19.95;;
78834;SDS011;68187;42.682;23.352;2023-02-28T03:57:50;37.25;;;20.05;;
78834;SDS011;68187;42.682;23.352;2023-02-28T04:06:37;39.08;;;19.00;;
78834;SDS011;68187;42.682;23.352;2023-02-28T04:09:49;45.28;;;20.75;;
78834;SDS011;68187;42.682;23.352;2023-02-28T04:12:36;38.70;;;21.17;;
78834;SDS011;68187;42.682;23.352;2023-02-28T04:15:24;43.47;;;20.77;;
78834;SDS011;68187;42.682;23.352;2023-02-28T04:18:05;36.55;;;17.00;;
78834;SDS011;68187;42.682;23.352;2023-02-28T04:20:49;35.20;;;16.73;;
78834;SDS011;68187;42.682;23.352;2023-02-28T04:23:38;32.97;;;15.80;;
78834;SDS011;68187;42.682;23.352;2023-02-28T04:26:21;28.15;;;13.82;;
78834;SDS011;68187;42.682;23.352;2023-02-28T04:28:59;30.00;;;16.65;;
78834;SDS011;68187;42.682;23.352;2023-02-28T04:47:38;38.58;;;18.42;;
78834;SDS011;68187;42.682;23.352;2023-02-28T04:53:21;33.97;;;19.25;;
78834;SDS011;68187;42.682;23.352;2023-02-28T05:25:04;38.10;;;18.98;;
78834;SDS011;68187;42.682;23.352;2023-02-28T05:28:16;44.88;;;22.52;;
78834;SDS011;68187;42.682;23.352;2023-02-28T05:34:14;39.80;;;20.10;;
78834;SDS011;68187;42.682;23.352;2023-02-28T05:37:19;40.05;;;19.83;;
78834;SDS011;68187;42.682;23.352;2023-02-28T06:22:19;44.30;;;22.30;;
78834;SDS011;68187;42.682;23.352;2023-02-28T06:25:10;51.72;;;24.17;;
78834;SDS011;68187;42.682;23.352;2023-02-28T06:28:19;49.38;;;23.60;;
78834;SDS011;68187;42.682;23.352;2023-02-28T06:30:47;48.53;;;23.95;;
78834;SDS011;68187;42.682;23.352;2023-02-28T06:33:18;55.92;;;26.48;;
78834;SDS011;68187;42.682;23.352;2023-02-28T06:35:46;47.20;;;23.73;;
78834;SDS011;68187;42.682;23.352;2023-02-28T06:38:17;53.75;;;25.92;;
78834;SDS011;68187;42.682;23.352;2023-02-28T06:40:52;57.47;;;25.80;;
78834;SDS011;68187;42.682;23.352;2023-02-28T06:43:23;58.55;;;28.98;;
78834;SDS011;68187;42.682;23.352;2023-02-28T06:45:58;64.05;;;32.00;;
78834;SDS011;68187;42.682;23.352;2023-02-28T06:48:27;60.60;;;31.27;;
78834;SDS011;68187;42.682;23.352;2023-02-28T06:51:00;57.90;;;27.65;;
78834;SDS011;68187;42.682;23.352;2023-02-28T06:53:30;53.22;;;25.83;;
78834;SDS011;68187;42.682;23.352;2023-02-28T06:56:03;51.30;;;26.27;;
78834;SDS011;68187;42.682;23.352;2023-02-28T06:58:32;43.95;;;24.25;;
78834;SDS011;68187;42.682;23.352;2023-02-28T07:01:00;39.63;;;21.85;;
78834;SDS011;68187;42.682;23.352;2023-02-28T07:03:28;44.60;;;23.65;;
78834;SDS011;68187;42.682;23.352;2023-02-28T07:05:56;41.50;;;24.15;;
78834;SDS011;68187;42.682;23.352;2023-02-28T07:08:24;41.08;;;22.50;;
78834;SDS011;68187;42.682;23.352;2023-02-28T07:13:48;37.95;;;22.88;;
78834;SDS011;68187;42.682;23.352;2023-02-28T07:16:18;37.17;;;20.85;;
78834;SDS011;68187;42.682;23.352;2023-02-28T07:18:45;39.97;;;23.52;;
78834;SDS011;68187;42.682;23.352;2023-02-28T07:21:13;39.58;;;20.20;;
78834;SDS011;68187;42.682;23.352;2023-02-28T07:23:41;46.28;;;26.48;;
78834;SDS011;68187;42.682;23.352;2023-02-28T07:26:12;41.50;;;23.30;;
78834;SDS011;68187;42.682;23.352;2023-02-28T07:28:42;44.97;;;24.13;;
78834;SDS011;68187;42.682;23.352;2023-02-28T07:31:11;42.42;;;23.35;;
78834;SDS011;68187;42.682;23.352;2023-02-28T07:33:40;36.28;;;19.63;;
78834;SDS011;68187;42.682;23.352;2023-02-28T07:36:09;43.30;;;23.42;;
78834;SDS011;68187;42.682;23.352;2023-02-28T07:41:07;42.55;;;22.90;;
78834;SDS011;68187;42.682;23.352;2023-02-28T07:43:37;46.63;;;27.42;;
78834;SDS011;68187;42.682;23.352;2023-02-28T07:46:06;49.63;;;25.60;;
78834;SDS011;68187;42.682;23.352;2023-02-28T07:48:35;48.65;;;28.20;;
78834;SDS011;68187;42.682;23.352;2023-02-28T07:51:02;43.38;;;24.90;;
78834;SDS011;68187;42.682;23.352;2023-02-28T07:53:31;46.53;;;26.27;;
78834;SDS011;68187;42.682;23.352;2023-02-28T07:55:59;47.15;;;28.15;;
78834;SDS011;68187;42.682;23.352;2023-02-28T07:58:28;44.03;;;25.38;;
78834;SDS011;68187;42.682;23.352;2023-02-28T08:00:58;43.63;;;24.73;;
78834;SDS011;68187;42.682;23.352;2023-02-28T08:03:32;42.10;;;26.63;;
78834;SDS011;68187;42.682;23.352;2023-02-28T08:06:00;50.67;;;24.50;;
78834;SDS011;68187;42.682;23.352;2023-02-28T08:08:29;46.20;;;26.83;;
78834;SDS011;68187;42.682;23.352;2023-02-28T08:10:57;45.38;;;25.75;;
78834;SDS011;68187;42.682;23.352;2023-02-28T08:13:26;45.03;;;24.67;;
78834;SDS011;68187;42.682;23.352;2023-02-28T08:15:55;38.35;;;24.23;;
78834;SDS011;68187;42.682;23.352;2023-02-28T08:18:24;43.03;;;25.45;;
78834;SDS011;68187;42.682;23.352;2023-02-28T08:20:54;44.67;;;25.67;;
78834;SDS011;68187;42.682;23.352;2023-02-28T08:27:04;40.78;;;23.85;;
78834;SDS011;68187;42.682;23.352;2023-02-28T08:29:32;40.20;;;23.80;;
78834;SDS011;68187;42.682;23.352;2023-02-28T08:32:06;45.80;;;24.95;;
78834;SDS011;68187;42.682;23.352;2023-02-28T08:34:36;37.67;;;22.80;;
78834;SDS011;68187;42.682;23.352;2023-02-28T08:37:09;47.83;;;22.40;;
78834;SDS011;68187;42.682;23.352;2023-02-28T08:42:42;37.40;;;24.98;;
78834;SDS011;68187;42.682;23.352;2023-02-28T08:45:25;38.17;;;22.95;;
78834;SDS011;68187;42.682;23.352;2023-02-28T08:51:37;38.28;;;21.92;;
78834;SDS011;68187;42.682;23.352;2023-02-28T08:54:05;42.38;;;19.75;;
78834;SDS011;68187;42.682;23.352;2023-02-28T08:56:44;33.95;;;16.83;;
78834;SDS011;68187;42.682;23.352;2023-02-28T08:59:13;29.77;;;15.60;;
78834;SDS011;68187;42.682;23.352;2023-02-28T09:01:41;29.10;;;14.70;;
78834;SDS011;68187;42.682;23.352;2023-02-28T09:04:17;31.63;;;16.30;;
78834;SDS011;68187;42.682;23.352;2023-02-28T09:06:47;37.38;;;15.07;;
78834;SDS011;68187;42.682;23.352;2023-02-28T09:09:15;28.02;;;14.85;;
78834;SDS011;68187;42.682;23.352;2023-02-28T09:11:43;30.40;;;13.68;;
78834;SDS011;68187;42.682;23.352;2023-02-28T09:14:13;27.33;;;14.73;;
78834;SDS011;68187;42.682;23.352;2023-02-28T09:16:42;32.17;;;16.70;;
78834;SDS011;68187;42.682;23.352;2023-02-28T09:19:10;29.40;;;14.63;;
78834;SDS011;68187;42.682;23.352;2023-02-28T09:21:38;33.80;;;15.00;;
78834;SDS011;68187;42.682;23.352;2023-02-28T09:24:07;26.52;;;14.40;;
78834;SDS011;68187;42.682;23.352;2023-02-28T09:26:36;27.85;;;14.63;;
78834;SDS011;68187;42.682;23.352;2023-02-28T09:29:05;23.80;;;13.20;;
78834;SDS011;68187;42.682;23.352;2023-02-28T09:31:33;26.75;;;13.10;;
78834;SDS011;68187;42.682;23.352;2023-02-28T09:34:01;27.92;;;13.65;;
78834;SDS011;68187;42.682;23.352;2023-02-28T09:36:30;26.75;;;13.77;;
78834;SDS011;68187;42.682;23.352;2023-02-28T09:39:02;28.65;;;14.68;;
78834;SDS011;68187;42.682;23.352;2023-02-28T09:41:38;26.73;;;14.57;;
78834;SDS011;68187;42.682;23.352;2023-02-28T09:44:13;25.83;;;12.57;;
78834;SDS011;68187;42.682;23.352;2023-02-28T09:46:47;26.67;;;14.07;;
78834;SDS011;68187;42.682;23.352;2023-02-28T09:49:20;25.52;;;14.98;;
78834;SDS011;68187;42.682;23.352;2023-02-28T09:51:51;24.42;;;13.60;;
78834;SDS011;68187;42.682;23.352;2023-02-28T09:54:27;27.40;;;13.45;;
78834;SDS011;68187;42.682;23.352;2023-02-28T09:56:58;22.35;;;11.57;;
78834;SDS011;68187;42.682;23.352;2023-02-28T09:59:38;24.05;;;12.13;;
78834;SDS011;68187;42.682;23.352;2023-02-28T10:02:18;20.92;;;11.18;;
78834;SDS011;68187;42.682;23.352;2023-02-28T10:05:02;22.08;;;10.70;;
78834;SDS011;68187;42.682;23.352;2023-02-28T10:07:38;24.83;;;12.93;;
78834;SDS011;68187;42.682;23.352;2023-02-28T10:10:21;27.30;;;12.65;;
78834;SDS011;68187;42.682;23.352;2023-02-28T10:12:54;20.67;;;10.90;;
78834;SDS011;68187;42.682;23.352;2023-02-28T10:15:27;25.95;;;11.20;;
78834;SDS011;68187;42.682;23.352;2023-02-28T10:17:57;19.52;;;10.82;;
78834;SDS011;68187;42.682;23.352;2023-02-28T10:20:29;24.77;;;11.00;;
78834;SDS011;68187;42.682;23.352;2023-02-28T10:23:03;19.95;;;11.52;;
78834;SDS011;68187;42.682;23.352;2023-02-28T10:25:36;21.20;;;9.95;;
78834;SDS011;68187;42.682;23.352;2023-02-28T10:28:10;18.55;;;9.35;;
78834;SDS011;68187;42.682;23.352;2023-02-28T10:30:40;19.17;;;9.43;;
78834;SDS011;68187;42.682;23.352;2023-02-28T10:33:16;24.67;;;9.65;;
78834;SDS011;68187;42.682;23.352;2023-02-28T10:35:48;22.58;;;9.25;;
78834;SDS011;68187;42.682;23.352;2023-02-28T10:38:17;17.98;;;8.75;;
78834;SDS011;68187;42.682;23.352;2023-02-28T10:40:51;21.45;;;10.27;;
78834;SDS011;68187;42.682;23.352;2023-02-28T10:46:54;20.60;;;10.02;;
78834;SDS011;68187;42.682;23.352;2023-02-28T10:49:50;19.17;;;10.77;;
78834;SDS011;68187;42.682;23.352;2023-02-28T10:56:24;19.15;;;10.15;;
78834;SDS011;68187;42.682;23.352;2023-02-28T10:59:38;23.35;;;10.50;;
78834;SDS011;68187;42.682;23.352;2023-02-28T11:02:47;24.55;;;9.75;;
78834;SDS011;68187;42.682;23.352;2023-02-28T11:05:43;21.30;;;11.77;;
78834;SDS011;68187;42.682;23.352;2023-02-28T11:13:02;21.55;;;11.02;;
78834;SDS011;68187;42.682;23.352;2023-02-28T11:15:59;25.55;;;11.52;;
78834;SDS011;68187;42.682;23.352;2023-02-28T11:22:25;23.15;;;10.10;;
78834;SDS011;68187;42.682;23.352;2023-02-28T11:25:46;22.90;;;11.20;;
78834;SDS011;68187;42.682;23.352;2023-02-28T11:28:49;21.70;;;10.32;;
78834;SDS011;68187;42.682;23.352;2023-02-28T11:32:37;20.33;;;9.02;;
78834;SDS011;68187;42.682;23.352;2023-02-28T11:36:17;19.48;;;10.95;;
78834;SDS011;68187;42.682;23.352;2023-02-28T11:39:10;23.52;;;10.00;;
78834;SDS011;68187;42.682;23.352;2023-02-28T11:45:00;20.27;;;10.38;;
78834;SDS011;68187;42.682;23.352;2023-02-28T11:47:38;23.05;;;9.75;;
78834;SDS011;68187;42.682;23.352;2023-02-28T11:50:21;21.55;;;9.98;;
78834;SDS011;68187;42.682;23.352;2023-02-28T11:53:05;22.48;;;10.48;;
78834;SDS011;68187;42.682;23.352;2023-02-28T11:55:41;23.67;;;9.95;;
78834;SDS011;68187;42.682;23.352;2023-02-28T11:58:23;21.13;;;10.82;;
78834;SDS011;68187;42.682;23.352;2023-02-28T12:04:04;23.27;;;10.05;;
78834;SDS011;68187;42.682;23.352;2023-02-28T12:06:43;24.48;;;10.43;;
78834;SDS011;68187;42.682;23.352;2023-02-28T12:12:07;19.73;;;9.13;;
78834;SDS011;68187;42.682;23.352;2023-02-28T12:17:55;20.52;;;10.20;;
78834;SDS011;68187;42.682;23.352;2023-02-28T12:20:45;23.48;;;10.55;;
78834;SDS011;68187;42.682;23.352;2023-02-28T12:23:23;22.08;;;10.27;;
78834;SDS011;68187;42.682;23.352;2023-02-28T12:26:11;21.50;;;10.30;;
78834;SDS011;68187;42.682;23.352;2023-02-28T12:28:46;23.00;;;11.85;;
78834;SDS011;68187;42.682;23.352;2023-02-28T12:31:18;19.20;;;9.60;;
78834;SDS011;68187;42.682;23.352;2023-02-28T12:33:52;21.15;;;10.20;;
78834;SDS011;68187;42.682;23.352;2023-02-28T12:36:22;21.83;;;10.93;;
78834;SDS011;68187;42.682;23.352;2023-02-28T12:38:52;17.73;;;9.38;;
78834;SDS011;68187;42.682;23.352;2023-02-28T12:41:26;26.13;;;10.70;;
78834;SDS011;68187;42.682;23.352;2023-02-28T12:44:00;18.10;;;10.10;;
78834;SDS011;68187;42.682;23.352;2023-02-28T12:46:32;25.35;;;9.95;;
78834;SDS011;68187;42.682;23.352;2023-02-28T12:49:06;18.80;;;8.85;;
78834;SDS011;68187;42.682;23.352;2023-02-28T12:51:38;20.88;;;8.82;;
78834;SDS011;68187;42.682;23.352;2023-02-28T12:54:12;21.45;;;8.48;;
78834;SDS011;68187;42.682;23.352;2023-02-28T12:56:47;23.88;;;8.60;;
78834;SDS011;68187;42.682;23.352;2023-02-28T12:59:22;27.80;;;9.45;;
78834;SDS011;68187;42.682;23.352;2023-02-28T13:11:02;17.95;;;8.45;;
78834;SDS011;68187;42.682;23.352;2023-02-28T13:13:30;21.45;;;8.57;;
78834;SDS011;68187;42.682;23.352;2023-02-28T13:16:02;18.08;;;8.48;;
78834;SDS011;68187;42.682;23.352;2023-02-28T13:18:33;19.23;;;7.10;;
78834;SDS011;68187;42.682;23.352;2023-02-28T13:21:06;21.15;;;9.48;;
78834;SDS011;68187;42.682;23.352;2023-02-28T13:23:40;22.92;;;9.63;;
78834;SDS011;68187;42.682;23.352;2023-02-28T13:29:30;23.42;;;9.32;;
78834;SDS011;68187;42.682;23.352;2023-02-28T13:35:13;20.80;;;9.10;;
78834;SDS011;68187;42.682;23.352;2023-02-28T13:40:51;18.90;;;9.00;;
78834;SDS011;68187;42.682;23.352;2023-02-28T13:43:19;18.45;;;8.43;;
78834;SDS011;68187;42.682;23.352;2023-02-28T13:48:37;22.67;;;8.88;;
78834;SDS011;68187;42.682;23.352;2023-02-28T13:54:23;20.73;;;9.23;;
78834;SDS011;68187;42.682;23.352;2023-02-28T13:57:05;18.15;;;8.10;;
78834;SDS011;68187;42.682;23.352;2023-02-28T13:59:44;22.05;;;7.93;;
78834;SDS011;68187;42.682;23.352;2023-02-28T14:02:33;15.90;;;7.45;;
78834;SDS011;68187;42.682;23.352;2023-02-28T14:05:24;18.55;;;8.55;;
78834;SDS011;68187;42.682;23.352;2023-02-28T14:07:55;17.65;;;8.50;;
78834;SDS011;68187;42.682;23.352;2023-02-28T14:10:28;17.95;;;8.60;;
78834;SDS011;68187;42.682;23.352;2023-02-28T14:13:03;17.38;;;6.82;;
78834;SDS011;68187;42.682;23.352;2023-02-28T14:15:39;17.58;;;7.57;;
78834;SDS011;68187;42.682;23.352;2023-02-28T14:18:15;21.63;;;8.68;;
78834;SDS011;68187;42.682;23.352;2023-02-28T14:20:52;17.02;;;7.88;;
78834;SDS011;68187;42.682;23.352;2023-02-28T14:26:53;17.42;;;8.02;;
78834;SDS011;68187;42.682;23.352;2023-02-28T14:29:36;18.25;;;8.50;;
78834;SDS011;68187;42.682;23.352;2023-02-28T14:32:27;17.70;;;8.05;;
78834;SDS011;68187;42.682;23.352;2023-02-28T14:35:02;21.08;;;7.90;;
78834;SDS011;68187;42.682;23.352;2023-02-28T14:37:39;24.95;;;9.80;;
78834;SDS011;68187;42.682;23.352;2023-02-28T14:40:12;21.95;;;8.25;;
78834;SDS011;68187;42.682;23.352;2023-02-28T14:42:48;20.40;;;7.28;;
78834;SDS011;68187;42.682;23.352;2023-02-28T14:45:22;18.10;;;8.38;;
78834;SDS011;68187;42.682;23.352;2023-02-28T14:47:50;19.95;;;6.95;;
78834;SDS011;68187;42.682;23.352;2023-02-28T14:50:19;19.30;;;7.63;;
78834;SDS011;68187;42.682;23.352;2023-02-28T14:52:50;17.58;;;8.32;;
78834;SDS011;68187;42.682;23.352;2023-02-28T14:55:23;21.92;;;7.88;;
78834;SDS011;68187;42.682;23.352;2023-02-28T14:57:54;18.17;;;7.60;;
78834;SDS011;68187;42.682;23.352;2023-02-28T15:00:25;20.20;;;7.25;;
78834;SDS011;68187;42.682;23.352;2023-02-28T15:02:54;16.75;;;7.13;;
78834;SDS011;68187;42.682;23.352;2023-02-28T15:05:24;20.90;;;7.40;;
78834;SDS011;68187;42.682;23.352;2023-02-28T15:08:05;19.63;;;7.45;;
78834;SDS011;68187;42.682;23.352;2023-02-28T15:10:37;21.70;;;8.48;;
78834;SDS011;68187;42.682;23.352;2023-02-28T15:13:11;21.38;;;6.43;;
78834;SDS011;68187;42.682;23.352;2023-02-28T15:15:45;17.30;;;7.45;;
78834;SDS011;68187;42.682;23.352;2023-02-28T15:18:25;17.88;;;7.82;;
78834;SDS011;68187;42.682;23.352;2023-02-28T15:21:27;20.40;;;8.07;;
78834;SDS011;68187;42.682;23.352;2023-02-28T15:23:57;16.25;;;7.07;;
78834;SDS011;68187;42.682;23.352;2023-02-28T15:29:12;24.00;;;7.68;;
78834;SDS011;68187;42.682;23.352;2023-02-28T15:31:42;16.70;;;9.00;;
78834;SDS011;68187;42.682;23.352;2023-02-28T15:34:15;15.13;;;6.75;;
78834;SDS011;68187;42.682;23.352;2023-02-28T15:36:47;18.90;;;8.23;;
78834;SDS011;68187;42.682;23.352;2023-02-28T15:39:19;19.88;;;7.45;;
78834;SDS011;68187;42.682;23.352;2023-02-28T15:41:47;13.27;;;6.47;;
78834;SDS011;68187;42.682;23.352;2023-02-28T15:44:17;17.35;;;7.25;;
78834;SDS011;68187;42.682;23.352;2023-02-28T15:46:57;19.40;;;8.63;;
78834;SDS011;68187;42.682;23.352;2023-02-28T15:49:26;15.80;;;8.00;;
78834;SDS011;68187;42.682;23.352;2023-02-28T15:51:57;15.30;;;6.68;;
78834;SDS011;68187;42.682;23.352;2023-02-28T15:54:27;13.77;;;6.85;;
78834;SDS011;68187;42.682;23.352;2023-02-28T15:56:57;16.42;;;6.05;;
78834;SDS011;68187;42.682;23.352;2023-02-28T15:59:28;14.75;;;7.22;;
78834;SDS011;68187;42.682;23.352;2023-02-28T16:02:04;14.32;;;6.45;;
78834;SDS011;68187;42.682;23.352;2023-02-28T16:07:25;12.70;;;6.47;;
78834;SDS011;68187;42.682;23.352;2023-02-28T16:09:52;15.45;;;8.32;;
78834;SDS011;68187;42.682;23.352;2023-02-28T16:12:20;14.60;;;7.88;;
78834;SDS011;68187;42.682;23.352;2023-02-28T16:14:52;13.77;;;6.95;;
78834;SDS011;68187;42.682;23.352;2023-02-28T16:17:20;10.80;;;5.78;;
78834;SDS011;68187;42.682;23.352;2023-02-28T16:19:48;15.93;;;6.38;;
78834;SDS011;68187;42.682;23.352;2023-02-28T16:22:15;12.20;;;7.10;;
78834;SDS011;68187;42.682;23.352;2023-02-28T16:24:44;11.98;;;5.95;;
78834;SDS011;68187;42.682;23.352;2023-02-28T16:27:15;12.45;;;6.60;;
78834;SDS011;68187;42.682;23.352;2023-02-28T16:29:45;12.70;;;9.13;;
78834;SDS011;68187;42.682;23.352;2023-02-28T16:32:13;13.77;;;6.10;;
78834;SDS011;68187;42.682;23.352;2023-02-28T16:34:41;11.80;;;6.38;;
78834;SDS011;68187;42.682;23.352;2023-02-28T16:37:10;14.45;;;7.57;;
78834;SDS011;68187;42.682;23.352;2023-02-28T16:39:38;12.48;;;5.93;;
78834;SDS011;68187;42.682;23.352;2023-02-28T16:42:07;12.18;;;6.60;;
78834;SDS011;68187;42.682;23.352;2023-02-28T16:44:40;13.73;;;5.97;;
78834;SDS011;68187;42.682;23.352;2023-02-28T16:47:08;12.68;;;5.20;;
78834;SDS011;68187;42.682;23.352;2023-02-28T16:49:37;12.35;;;5.05;;
78834;SDS011;68187;42.682;23.352;2023-02-28T16:52:06;16.38;;;6.47;;
78834;SDS011;68187;42.682;23.352;2023-02-28T16:54:36;13.20;;;6.30;;
78834;SDS011;68187;42.682;23.352;2023-02-28T16:57:04;14.13;;;5.25;;
78834;SDS011;68187;42.682;23.352;2023-02-28T16:59:33;11.27;;;5.47;;
78834;SDS011;68187;42.682;23.352;2023-02-28T17:01:59;11.38;;;5.32;;
78834;SDS011;68187;42.682;23.352;2023-02-28T17:04:26;11.45;;;5.72;;
78834;SDS011;68187;42.682;23.352;2023-02-28T17:06:53;11.70;;;5.88;;
78834;SDS011;68187;42.682;23.352;2023-02-28T17:09:21;13.38;;;7.47;;
78834;SDS011;68187;42.682;23.352;2023-02-28T17:11:50;12.43;;;5.65;;
78834;SDS011;68187;42.682;23.352;2023-02-28T17:14:18;12.32;;;5.97;;
78834;SDS011;68187;42.682;23.352;2023-02-28T17:16:47;10.70;;;5.75;;
78834;SDS011;68187;42.682;23.352;2023-02-28T17:19:14;9.48;;;5.28;;
78834;SDS011;68187;42.682;23.352;2023-02-28T17:21:43;11.15;;;5.57;;
78834;SDS011;68187;42.682;23.352;2023-02-28T17:24:11;8.70;;;4.57;;
78834;SDS011;68187;42.682;23.352;2023-02-28T17:26:38;10.35;;;5.35;;
78834;SDS011;68187;42.682;23.352;2023-02-28T17:29:09;8.90;;;3.72;;
78834;SDS011;68187;42.682;23.352;2023-02-28T17:31:40;9.38;;;4.13;;
78834;SDS011;68187;42.682;23.352;2023-02-28T17:34:09;11.02;;;4.68;;
78834;SDS011;68187;42.682;23.352;2023-02-28T17:36:36;8.75;;;4.05;;
78834;SDS011;68187;42.682;23.352;2023-02-28T17:39:04;9.20;;;3.88;;
78834;SDS011;68187;42.682;23.352;2023-02-28T17:41:35;8.65;;;4.40;;
78834;SDS011;68187;42.682;23.352;2023-02-28T17:44:02;8.70;;;3.50;;
78834;SDS011;68187;42.682;23.352;2023-02-28T17:46:28;8.25;;;3.15;;
78834;SDS011;68187;42.682;23.352;2023-02-28T17:48:55;8.05;;;3.75;;
78834;SDS011;68187;42.682;23.352;2023-02-28T17:51:23;7.10;;;3.10;;
78834;SDS011;68187;42.682;23.352;2023-02-28T17:53:50;8.38;;;4.15;;
78834;SDS011;68187;42.682;23.352;2023-02-28T17:56:18;7.35;;;4.07;;
78834;SDS011;68187;42.682;23.352;2023-02-28T17:58:47;7.63;;;4.65;;
78834;SDS011;68187;42.682;23.352;2023-02-28T18:01:14;8.40;;;3.75;;
78834;SDS011;68187;42.682;23.352;2023-02-28T18:03:41;9.70;;;4.03;;
78834;SDS011;68187;42.682;23.352;2023-02-28T18:06:11;10.05;;;4.50;;
78834;SDS011;68187;42.682;23.352;2023-02-28T18:08:42;7.13;;;3.75;;
78834;SDS011;68187;42.682;23.352;2023-02-28T18:11:09;7.35;;;3.58;;
78834;SDS011;68187;42.682;23.352;2023-02-28T18:13:42;6.93;;;3.70;;
78834;SDS011;68187;42.682;23.352;2023-02-28T18:16:10;6.97;;;3.28;;
78834;SDS011;68187;42.682;23.352;2023-02-28T18:18:37;8.23;;;4.40;;
78834;SDS011;68187;42.682;23.352;2023-02-28T18:21:04;7.63;;;3.53;;
78834;SDS011;68187;42.682;23.352;2023-02-28T18:23:31;9.40;;;3.38;;
78834;SDS011;68187;42.682;23.352;2023-02-28T18:26:00;8.65;;;3.70;;
78834;SDS011;68187;42.682;23.352;2023-02-28T18:28:27;5.53;;;3.22;;
78834;SDS011;68187;42.682;23.352;2023-02-28T18:30:53;7.13;;;3.22;;
78834;SDS011;68187;42.682;23.352;2023-02-28T18:33:20;7.15;;;3.35;;
78834;SDS011;68187;42.682;23.352;2023-02-28T18:35:54;8.27;;;3.65;;
78834;SDS011;68187;42.682;23.352;2023-02-28T18:38:21;6.57;;;3.00;;